createdAt,value
2023-02-14T00:00:52.934Z,100.00
2023-02-14T00:01:55.536Z,100.00
2023-02-14T00:02:58.788Z,100.00
2023-02-14T00:04:00.873Z,100.00
2023-02-14T00:05:04.241Z,100.00
2023-02-14T00:06:08.543Z,100.00
2023-02-14T00:07:11.207Z,100.00
2023-02-14T00:08:13.241Z,100.00
2023-02-14T00:09:18.804Z,100.00
2023-02-14T00:10:21.369Z,100.00
2023-02-14T00:11:23.443Z,100.00
2023-02-14T00:12:25.423Z,100.00
2023-02-14T00:13:28.115Z,100.00
2023-02-14T00:14:30.384Z,100.00
2023-02-14T00:15:32.414Z,100.00
2023-02-14T00:16:34.570Z,100.00
2023-02-14T00:17:36.517Z,100.00
2023-02-14T00:18:38.381Z,100.00
2023-02-14T00:19:40.695Z,100.00
2023-02-14T00:20:42.874Z,100.00
2023-02-14T00:21:46.080Z,100.00
2023-02-14T00:22:49.278Z,100.00
2023-02-14T00:23:51.234Z,100.00
2023-02-14T00:24:53.123Z,100.00
2023-02-14T00:25:55.006Z,100.00
2023-02-14T00:26:59.877Z,100.00
2023-02-14T00:28:02.056Z,100.00
2023-02-14T00:29:09.289Z,100.00
2023-02-14T00:30:13.976Z,100.00
2023-02-14T00:31:16.051Z,100.00
2023-02-14T00:32:18.042Z,100.00
2023-02-14T00:33:19.933Z,100.00
2023-02-14T00:34:22.227Z,100.00
2023-02-14T00:35:24.908Z,100.00
2023-02-14T00:36:27.319Z,100.00
2023-02-14T00:37:29.207Z,100.00
2023-02-14T00:38:31.780Z,100.00
2023-02-14T00:39:33.784Z,100.00
2023-02-14T00:40:35.764Z,100.00
2023-02-14T00:41:39.365Z,100.00
2023-02-14T00:42:41.750Z,100.00
2023-02-14T00:43:44.097Z,100.00
2023-02-14T00:44:46.558Z,100.00
2023-02-14T00:45:48.486Z,100.00
2023-02-14T00:46:51.173Z,100.00
2023-02-14T00:47:53.179Z,100.00
2023-02-14T00:48:56.149Z,100.00
2023-02-14T00:49:58.081Z,100.00
2023-02-14T00:51:00.842Z,100.00
2023-02-14T00:52:04.737Z,100.00
2023-02-14T00:53:06.676Z,100.00
2023-02-14T00:54:08.650Z,100.00
2023-02-14T00:55:10.565Z,100.00
2023-02-14T00:56:14.629Z,100.00
2023-02-14T00:57:16.690Z,100.00
2023-02-14T00:58:18.570Z,100.00
2023-02-14T00:59:20.712Z,100.00
2023-02-14T01:00:23.528Z,100.00
2023-02-14T01:01:27.078Z,100.00
2023-02-14T01:02:29.193Z,100.00
2023-02-14T01:03:31.402Z,100.00
2023-02-14T01:04:33.487Z,100.00
2023-02-14T01:05:35.686Z,100.00
2023-02-14T01:06:37.943Z,100.00
2023-02-14T01:07:40.788Z,100.00
2023-02-14T01:08:43.017Z,100.00
2023-02-14T01:09:46.144Z,100.00
2023-02-14T01:10:49.158Z,100.00
2023-02-14T01:11:51.194Z,100.00
2023-02-14T01:12:53.180Z,100.00
2023-02-14T01:13:57.071Z,100.00
2023-02-14T01:14:59.153Z,100.00
2023-02-14T01:16:10.368Z,100.00
2023-02-14T01:17:12.377Z,100.00
2023-02-14T01:18:15.865Z,100.00
2023-02-14T01:19:17.920Z,100.00
2023-02-14T01:20:20.741Z,100.00
2023-02-14T01:21:26.506Z,100.00
2023-02-14T01:22:28.419Z,100.00
2023-02-14T01:23:30.319Z,100.00
2023-02-14T01:24:32.218Z,100.00
2023-02-14T01:25:36.383Z,100.00
2023-02-14T01:26:39.259Z,100.00
2023-02-14T01:27:41.331Z,100.00
2023-02-14T01:28:43.837Z,100.00
2023-02-14T01:29:46.355Z,100.00
2023-02-14T01:30:48.674Z,100.00
2023-02-14T01:31:50.599Z,100.00
2023-02-14T01:32:52.536Z,100.00
2023-02-14T01:33:55.613Z,100.00
2023-02-14T01:34:57.853Z,100.00
2023-02-14T01:35:59.968Z,100.00
2023-02-14T01:37:01.841Z,100.00
2023-02-14T01:38:03.915Z,100.00
2023-02-14T01:39:09.077Z,100.00
2023-02-14T01:40:13.348Z,100.00
2023-02-14T01:41:15.549Z,100.00
2023-02-14T01:42:18.287Z,100.00
2023-02-14T01:43:20.195Z,100.00
2023-02-14T01:44:38.366Z,100.00
2023-02-14T01:45:41.390Z,100.00
2023-02-14T01:46:45.390Z,100.00
2023-02-14T01:47:53.704Z,100.00
2023-02-14T01:49:02.199Z,100.00
2023-02-14T01:50:10.759Z,100.00
2023-02-14T01:51:15.279Z,100.00
2023-02-14T01:52:21.498Z,100.00
2023-02-14T01:53:27.161Z,100.00
2023-02-14T01:54:32.457Z,100.00
2023-02-14T01:55:37.754Z,100.00
2023-02-14T01:56:43.710Z,100.00
2023-02-14T01:57:49.464Z,100.00
2023-02-14T01:58:55.181Z,100.00
2023-02-14T02:00:00.644Z,100.00
2023-02-14T02:01:04.262Z,100.00
2023-02-14T02:02:07.415Z,100.00
2023-02-14T02:03:12.165Z,100.00
2023-02-14T02:04:20.858Z,100.00
2023-02-14T02:05:23.491Z,100.00
2023-02-14T02:06:32.520Z,100.00
2023-02-14T02:07:36.486Z,100.00
2023-02-14T02:08:42.269Z,100.00
2023-02-14T02:09:47.996Z,100.00
2023-02-14T02:10:50.379Z,100.00
2023-02-14T02:11:52.388Z,100.00
2023-02-14T02:12:57.721Z,100.00
2023-02-14T02:13:59.628Z,100.00
2023-02-14T02:15:02.799Z,100.00
2023-02-14T02:16:21.017Z,100.00
2023-02-14T02:17:48.423Z,100.00
2023-02-14T02:19:06.768Z,100.00
2023-02-14T02:20:28.269Z,100.00
2023-02-14T02:21:46.227Z,99.95
2023-02-14T02:23:24.563Z,99.93
2023-02-14T02:24:32.984Z,100.00
2023-02-14T02:25:58.524Z,100.00
2023-02-14T02:27:16.602Z,100.00
2023-02-14T02:28:32.022Z,100.00
2023-02-14T02:30:11.716Z,99.99
2023-02-14T02:31:33.088Z,100.00
2023-02-14T02:32:51.230Z,100.00
2023-02-14T02:33:56.928Z,100.00
2023-02-14T02:35:05.416Z,100.00
2023-02-14T02:36:38.466Z,100.00
2023-02-14T02:37:56.433Z,100.00
2023-02-14T02:39:12.306Z,99.99
2023-02-14T02:40:52.022Z,100.00
2023-02-14T02:42:09.847Z,99.99
2023-02-14T02:43:18.597Z,99.98
2023-02-14T02:44:49.647Z,100.00
2023-02-14T02:46:13.918Z,100.00
2023-02-14T02:47:38.405Z,100.00
2023-02-14T02:48:44.416Z,100.00
2023-02-14T02:49:55.854Z,100.00
2023-02-14T02:51:01.824Z,100.00
2023-02-14T02:52:07.854Z,100.00
2023-02-14T02:53:25.843Z,100.00
2023-02-14T02:54:43.565Z,100.00
2023-02-14T02:56:10.755Z,100.00
2023-02-14T02:57:16.474Z,100.00
2023-02-14T02:58:22.400Z,100.00
2023-02-14T02:59:34.130Z,100.00
2023-02-14T03:00:36.515Z,100.00
2023-02-14T03:01:41.929Z,100.00
2023-02-14T03:02:48.236Z,100.00
2023-02-14T03:03:53.927Z,100.00
2023-02-14T03:04:59.358Z,100.00
2023-02-14T03:06:02.692Z,100.00
2023-02-14T03:07:05.783Z,100.00
2023-02-14T03:08:08.627Z,100.00
2023-02-14T03:10:25.537Z,100.00
2023-02-14T03:11:29.456Z,100.00
2023-02-14T03:12:44.294Z,100.00
2023-02-14T03:13:55.643Z,100.00
2023-02-14T03:15:36.688Z,100.00
2023-02-14T03:17:54.518Z,100.00
2023-02-14T03:19:26.330Z,100.00
2023-02-14T03:20:47.720Z,100.00
2023-02-14T03:22:28.056Z,100.00
2023-02-14T03:23:36.897Z,100.00
2023-02-14T03:24:57.831Z,100.00
2023-02-14T03:26:18.815Z,100.00
2023-02-14T03:28:42.366Z,100.00
2023-02-14T03:30:00.092Z,100.00
2023-02-14T03:31:06.032Z,100.00
2023-02-14T03:32:15.160Z,100.00
2023-02-14T03:33:33.125Z,100.00
2023-02-14T03:34:44.151Z,100.00
2023-02-14T03:37:09.354Z,100.00
2023-02-14T03:38:17.761Z,100.00
2023-02-14T03:39:26.299Z,100.00
2023-02-14T03:40:35.096Z,100.00
2023-02-14T03:41:53.117Z,100.00
2023-02-14T03:43:13.583Z,100.00
2023-02-14T03:44:19.259Z,100.00
2023-02-14T03:45:30.877Z,100.00
2023-02-14T03:46:58.165Z,100.00
2023-02-14T03:48:03.847Z,100.00
2023-02-14T03:49:09.667Z,100.00
2023-02-14T03:50:15.734Z,100.00
2023-02-14T03:51:20.636Z,100.00
2023-02-14T03:52:26.255Z,100.00
2023-02-14T03:53:31.939Z,100.00
2023-02-14T03:54:35.595Z,100.00
2023-02-14T03:55:56.456Z,100.00
2023-02-14T03:57:19.431Z,100.00
2023-02-14T03:58:28.112Z,100.00
2023-02-14T03:59:32.311Z,100.00
2023-02-14T04:00:37.696Z,100.00
2023-02-14T04:01:43.505Z,100.00
2023-02-14T04:02:52.826Z,100.00
2023-02-14T04:03:58.178Z,100.00
2023-02-14T04:05:03.096Z,100.00
2023-02-14T04:06:06.479Z,100.00
2023-02-14T04:08:28.392Z,100.00
2023-02-14T04:09:30.304Z,100.00
2023-02-14T04:10:32.685Z,100.00
2023-02-14T04:11:34.699Z,100.00
2023-02-14T04:12:38.175Z,100.00
2023-02-14T04:13:41.902Z,100.00
2023-02-14T04:14:43.813Z,100.00
2023-02-14T04:15:45.789Z,100.00
2023-02-14T04:16:47.914Z,100.00
2023-02-14T04:17:49.896Z,100.00
2023-02-14T04:18:51.759Z,100.00
2023-02-14T04:19:54.069Z,100.00
2023-02-14T04:20:56.410Z,100.00
2023-02-14T04:21:58.412Z,100.00
2023-02-14T04:23:03.231Z,100.00
2023-02-14T04:24:05.896Z,100.00
2023-02-14T04:25:07.797Z,100.00
2023-02-14T04:26:10.695Z,100.00
2023-02-14T04:27:12.738Z,100.00
2023-02-14T04:28:14.731Z,100.00
2023-02-14T04:29:17.607Z,100.00
2023-02-14T04:30:21.164Z,100.00
2023-02-14T04:31:23.642Z,100.00
2023-02-14T04:32:27.309Z,100.00
2023-02-14T04:33:29.963Z,100.00
2023-02-14T04:34:32.741Z,100.00
2023-02-14T04:35:35.447Z,100.00
2023-02-14T04:36:37.838Z,100.00
2023-02-14T04:37:40.200Z,100.00
2023-02-14T04:38:42.273Z,100.00
2023-02-14T04:39:45.219Z,100.00
2023-02-14T04:40:53.516Z,100.00
2023-02-14T04:41:56.388Z,100.00
2023-02-14T04:42:58.352Z,100.00
2023-02-14T04:44:00.337Z,100.00
2023-02-14T04:45:04.302Z,100.00
2023-02-14T04:46:06.826Z,100.00
2023-02-14T04:47:09.250Z,100.00
2023-02-14T04:48:11.169Z,100.00
2023-02-14T04:49:13.200Z,100.00
2023-02-14T04:50:16.728Z,100.00
2023-02-14T04:51:18.984Z,100.00
2023-02-14T04:52:20.892Z,100.00
2023-02-14T04:53:22.762Z,100.00
2023-02-14T04:54:24.941Z,100.00
2023-02-14T04:55:26.838Z,100.00
2023-02-14T04:56:29.277Z,100.00
2023-02-14T04:57:31.159Z,100.00
2023-02-14T04:58:33.139Z,100.00
2023-02-14T04:59:35.064Z,100.00
2023-02-14T05:00:37.207Z,100.00
2023-02-14T05:01:39.681Z,100.00
2023-02-14T05:02:42.130Z,100.00
2023-02-14T05:03:44.225Z,100.00
2023-02-14T05:04:48.771Z,100.00
2023-02-14T05:05:50.927Z,100.00
2023-02-14T05:06:53.048Z,100.00
2023-02-14T05:07:55.086Z,100.00
2023-02-14T05:08:56.995Z,100.00
2023-02-14T05:09:59.030Z,100.00
2023-02-14T05:11:01.769Z,100.00
2023-02-14T05:12:04.140Z,100.00
2023-02-14T05:13:06.212Z,100.00
2023-02-14T05:14:08.560Z,100.00
2023-02-14T05:15:10.479Z,100.00
2023-02-14T05:16:13.132Z,100.00
2023-02-14T05:17:15.120Z,100.00
2023-02-14T05:18:17.076Z,100.00
2023-02-14T05:19:19.368Z,100.00
2023-02-14T05:20:21.795Z,100.00
2023-02-14T05:21:25.253Z,100.00
2023-02-14T05:22:27.261Z,100.00
2023-02-14T05:23:29.268Z,100.00
2023-02-14T05:24:31.284Z,100.00
2023-02-14T05:25:33.758Z,100.00
2023-02-14T05:26:36.362Z,100.00
2023-02-14T05:27:38.314Z,100.00
2023-02-14T05:28:40.193Z,100.00
2023-02-14T05:29:42.092Z,100.00
2023-02-14T05:30:46.316Z,100.00
2023-02-14T05:31:48.936Z,100.00
2023-02-14T05:32:52.815Z,100.00
2023-02-14T05:33:54.721Z,100.00
2023-02-14T05:34:56.753Z,100.00
2023-02-14T05:35:59.697Z,100.00
2023-02-14T05:37:02.417Z,100.00
2023-02-14T05:38:04.622Z,100.00
2023-02-14T05:39:06.733Z,100.00
2023-02-14T05:40:10.124Z,100.00
2023-02-14T05:41:13.004Z,100.00
2023-02-14T05:42:15.010Z,100.00
2023-02-14T05:43:17.048Z,100.00
2023-02-14T05:44:19.162Z,100.00
2023-02-14T05:45:22.539Z,100.00
2023-02-14T05:46:24.667Z,100.00
2023-02-14T05:47:27.484Z,100.00
2023-02-14T05:48:29.406Z,100.00
2023-02-14T05:49:31.600Z,100.00
2023-02-14T05:50:33.696Z,100.00
2023-02-14T05:51:35.576Z,100.00
2023-02-14T05:52:37.970Z,100.00
2023-02-14T05:53:40.395Z,100.00
2023-02-14T05:54:42.340Z,100.00
2023-02-14T05:55:46.299Z,100.00
2023-02-14T05:56:48.634Z,100.00
2023-02-14T05:57:51.498Z,100.00
2023-02-14T05:58:54.315Z,100.00
2023-02-14T05:59:56.230Z,100.00
2023-02-14T06:01:00.282Z,100.00
2023-02-14T06:02:02.789Z,100.00
2023-02-14T06:03:04.943Z,100.00
2023-02-14T06:04:07.497Z,100.00
2023-02-14T06:05:10.315Z,100.00
2023-02-14T06:06:14.538Z,100.00
2023-02-14T06:07:17.047Z,100.00
2023-02-14T06:08:20.663Z,100.00
2023-02-14T06:09:23.057Z,100.00
2023-02-14T06:10:25.462Z,100.00
2023-02-14T06:11:27.387Z,100.00
2023-02-14T06:12:29.379Z,100.00
2023-02-14T06:13:31.325Z,100.00
2023-02-14T06:14:33.472Z,100.00
2023-02-14T06:15:39.650Z,100.00
2023-02-14T06:16:43.707Z,100.00
2023-02-14T06:17:51.498Z,100.00
2023-02-14T06:18:54.280Z,100.00
2023-02-14T06:19:56.387Z,100.00
2023-02-14T06:20:59.153Z,100.00
2023-02-14T06:22:02.413Z,100.00
2023-02-14T06:23:04.784Z,100.00
2023-02-14T06:24:07.109Z,100.00
2023-02-14T06:25:09.569Z,100.00
2023-02-14T06:26:13.398Z,100.00
2023-02-14T06:27:15.564Z,100.00
2023-02-14T06:28:18.518Z,100.00
2023-02-14T06:29:20.553Z,100.00
2023-02-14T06:30:22.935Z,100.00
2023-02-14T06:31:25.962Z,100.00
2023-02-14T06:32:28.161Z,100.00
2023-02-14T06:33:30.337Z,100.00
2023-02-14T06:34:35.009Z,100.00
2023-02-14T06:35:39.019Z,100.00
2023-02-14T06:36:43.885Z,100.00
2023-02-14T06:37:46.478Z,100.00
2023-02-14T06:38:50.756Z,100.00
2023-02-14T06:39:52.764Z,100.00
2023-02-14T06:40:54.848Z,100.00
2023-02-14T06:41:57.138Z,100.00
2023-02-14T06:42:59.108Z,100.00
2023-02-14T06:44:01.842Z,100.00
2023-02-14T06:45:05.747Z,100.00
2023-02-14T06:46:08.637Z,100.00
2023-02-14T06:47:10.812Z,100.00
2023-02-14T06:48:13.739Z,100.00
2023-02-14T06:49:16.336Z,100.00
2023-02-14T06:50:19.809Z,100.00
2023-02-14T06:51:21.732Z,100.00
2023-02-14T06:52:24.518Z,100.00
2023-02-14T06:53:27.451Z,100.00
2023-02-14T06:54:29.778Z,100.00
2023-02-14T06:55:31.693Z,100.00
2023-02-14T06:56:33.870Z,99.92
2023-02-14T06:57:35.740Z,99.61
2023-02-14T06:58:37.715Z,99.38
2023-02-14T06:59:39.700Z,98.65
2023-02-14T07:00:42.111Z,98.65
2023-02-14T07:01:44.073Z,98.30
2023-02-14T07:02:46.638Z,98.22
2023-02-14T07:03:48.666Z,97.66
2023-02-14T07:04:50.648Z,97.59
2023-02-14T07:05:53.718Z,96.87
2023-02-14T07:06:57.964Z,95.85
2023-02-14T07:08:00.393Z,94.96
2023-02-14T07:09:03.987Z,93.72
2023-02-14T07:10:07.713Z,93.20
2023-02-14T07:11:09.963Z,93.33
2023-02-14T07:12:12.105Z,93.51
2023-02-14T07:13:14.316Z,92.82
2023-02-14T07:14:18.588Z,92.64
2023-02-14T07:15:20.782Z,92.85
2023-02-14T07:16:23.380Z,92.14
2023-02-14T07:17:25.335Z,91.77
2023-02-14T07:18:27.992Z,91.82
2023-02-14T07:19:30.308Z,91.87
2023-02-14T07:20:32.507Z,90.70
2023-02-14T07:21:35.412Z,90.66
2023-02-14T07:22:40.629Z,90.49
2023-02-14T07:23:42.785Z,90.41
2023-02-14T07:24:44.661Z,90.40
2023-02-14T07:25:47.263Z,90.17
2023-02-14T07:26:49.372Z,90.45
2023-02-14T07:27:51.276Z,90.59
2023-02-14T07:28:53.310Z,90.41
2023-02-14T07:29:55.354Z,89.99
2023-02-14T07:31:01.326Z,89.84
2023-02-14T07:32:04.467Z,89.65
2023-02-14T07:33:06.563Z,90.30
2023-02-14T07:34:08.448Z,90.53
2023-02-14T07:35:11.415Z,89.84
2023-02-14T07:36:13.745Z,89.64
2023-02-14T07:37:15.883Z,89.08
2023-02-14T07:38:17.879Z,88.39
2023-02-14T07:39:20.508Z,88.49
2023-02-14T07:40:22.740Z,88.35
2023-02-14T07:41:24.935Z,88.21
2023-02-14T07:42:27.384Z,88.22
2023-02-14T07:43:30.626Z,88.36
2023-02-14T07:44:32.670Z,88.42
2023-02-14T07:45:35.125Z,88.74
2023-02-14T07:46:37.396Z,88.28
2023-02-14T07:47:39.385Z,88.21
2023-02-14T07:48:41.357Z,88.67
2023-02-14T07:49:43.246Z,88.57
2023-02-14T07:50:45.448Z,88.35
2023-02-14T07:51:47.847Z,87.44
2023-02-14T07:52:50.346Z,87.00
2023-02-14T07:53:52.738Z,86.38
2023-02-14T07:54:54.813Z,85.50
2023-02-14T07:55:56.960Z,85.31
2023-02-14T07:57:00.932Z,85.42
2023-02-14T07:58:03.115Z,85.28
2023-02-14T07:59:05.275Z,84.51
2023-02-14T08:00:08.712Z,84.52
2023-02-14T08:01:10.768Z,84.92
2023-02-14T08:02:12.953Z,85.13
2023-02-14T08:03:15.814Z,85.49
2023-02-14T08:04:17.839Z,85.62
2023-02-14T08:05:19.862Z,85.60
2023-02-14T08:06:22.443Z,85.97
2023-02-14T08:07:24.480Z,86.05
2023-02-14T08:08:28.812Z,85.73
2023-02-14T08:09:30.943Z,85.44
2023-02-14T08:10:33.233Z,85.59
2023-02-14T08:11:36.118Z,85.64
2023-02-14T08:12:38.513Z,85.52
2023-02-14T08:13:41.583Z,85.51
2023-02-14T08:14:44.041Z,85.61
2023-02-14T08:15:46.088Z,85.59
2023-02-14T08:16:48.496Z,85.56
2023-02-14T08:17:52.161Z,85.26
2023-02-14T08:18:54.914Z,85.50
2023-02-14T08:19:56.824Z,85.09
2023-02-14T08:20:59.575Z,85.41
2023-02-14T08:22:03.732Z,85.28
2023-02-14T08:23:06.022Z,85.41
2023-02-14T08:24:07.920Z,85.51
2023-02-14T08:25:10.020Z,85.26
2023-02-14T08:26:12.450Z,85.18
2023-02-14T08:27:14.454Z,85.42
2023-02-14T08:28:17.496Z,85.19
2023-02-14T08:29:19.441Z,84.86
2023-02-14T08:30:22.940Z,84.91
2023-02-14T08:31:35.684Z,85.24
2023-02-14T08:32:33.600Z,85.62
2023-02-14T08:33:36.376Z,85.68
2023-02-14T08:34:38.626Z,85.78
2023-02-14T08:35:42.353Z,85.37
2023-02-14T08:36:44.962Z,85.66
2023-02-14T08:37:46.947Z,85.38
2023-02-14T08:38:48.831Z,84.82
2023-02-14T08:39:50.707Z,84.17
2023-02-14T08:40:52.818Z,83.89
2023-02-14T08:41:54.819Z,83.92
2023-02-14T08:42:57.960Z,84.13
2023-02-14T08:43:59.949Z,83.41
2023-02-14T08:45:02.615Z,83.41
2023-02-14T08:46:06.424Z,83.34
2023-02-14T08:47:08.413Z,83.56
2023-02-14T08:48:12.183Z,83.66
2023-02-14T08:49:14.493Z,83.67
2023-02-14T08:50:18.044Z,83.85
2023-02-14T08:51:21.766Z,83.92
2023-02-14T08:52:23.774Z,83.80
2023-02-14T08:53:25.774Z,83.60
2023-02-14T08:54:27.862Z,83.55
2023-02-14T08:55:29.748Z,83.38
2023-02-14T08:56:32.066Z,83.40
2023-02-14T08:57:34.930Z,83.75
2023-02-14T08:58:38.093Z,83.79
2023-02-14T08:59:39.992Z,83.22
2023-02-14T09:00:42.232Z,83.24
2023-02-14T09:01:44.305Z,83.38
2023-02-14T09:02:52.285Z,83.40
2023-02-14T09:03:55.069Z,83.97
2023-02-14T09:04:57.674Z,83.86
2023-02-14T09:06:04.634Z,83.58
2023-02-14T09:07:07.062Z,83.63
2023-02-14T09:08:08.986Z,83.44
2023-02-14T09:09:11.966Z,83.44
2023-02-14T09:10:14.533Z,83.11
2023-02-14T09:11:19.972Z,83.09
2023-02-14T09:12:22.072Z,82.61
2023-02-14T09:13:24.140Z,82.61
2023-02-14T09:14:26.185Z,82.19
2023-02-14T09:15:28.811Z,82.33
2023-02-14T09:16:31.018Z,82.51
2023-02-14T09:17:33.096Z,82.51
2023-02-14T09:18:35.520Z,82.22
2023-02-14T09:19:38.067Z,82.27
2023-02-14T09:20:40.071Z,82.26
2023-02-14T09:21:41.943Z,82.24
2023-02-14T09:22:43.850Z,82.17
2023-02-14T09:23:45.938Z,82.23
2023-02-14T09:24:47.995Z,82.36
2023-02-14T09:25:49.893Z,82.68
2023-02-14T09:26:51.915Z,82.33
2023-02-14T09:27:53.784Z,82.01
2023-02-14T09:28:56.298Z,81.64
2023-02-14T09:29:58.302Z,81.84
2023-02-14T09:31:14.592Z,81.94
2023-02-14T09:32:17.653Z,81.86
2023-02-14T09:33:19.793Z,81.65
2023-02-14T09:34:22.055Z,81.99
2023-02-14T09:35:24.037Z,81.82
2023-02-14T09:36:26.012Z,81.60
2023-02-14T09:37:28.021Z,81.51
2023-02-14T09:38:29.898Z,81.21
2023-02-14T09:39:31.885Z,81.30
2023-02-14T09:40:34.440Z,81.36
2023-02-14T09:41:49.372Z,81.31
2023-02-14T09:43:00.094Z,81.43
2023-02-14T09:44:24.769Z,81.62
2023-02-14T09:45:30.188Z,81.61
2023-02-14T09:46:36.261Z,81.10
2023-02-14T09:47:41.949Z,81.47
2023-02-14T09:48:46.697Z,81.34
2023-02-14T09:49:51.414Z,80.93
2023-02-14T09:51:03.298Z,80.93
2023-02-14T09:52:08.638Z,81.04
2023-02-14T09:53:26.362Z,81.02
2023-02-14T09:54:29.995Z,81.17
2023-02-14T09:55:45.392Z,81.11
2023-02-14T09:56:57.605Z,80.69
2023-02-14T09:59:43.792Z,80.85
2023-02-14T10:00:55.256Z,80.33
2023-02-14T10:02:28.289Z,79.93
2023-02-14T10:03:48.694Z,80.23
2023-02-14T10:04:57.519Z,79.78
2023-02-14T10:06:21.109Z,80.00
2023-02-14T10:08:00.445Z,79.71
2023-02-14T10:09:18.309Z,79.15
2023-02-14T10:10:30.625Z,78.86
2023-02-14T10:11:33.928Z,79.11
2023-02-14T10:12:40.397Z,79.00
2023-02-14T10:13:46.078Z,78.65
2023-02-14T10:14:49.716Z,78.88
2023-02-14T10:16:01.504Z,78.54
2023-02-14T10:17:16.306Z,78.59
2023-02-14T10:18:22.588Z,78.36
2023-02-14T10:19:46.646Z,78.40
2023-02-14T10:21:02.023Z,78.66
2023-02-14T10:22:08.352Z,78.65
2023-02-14T10:23:19.543Z,78.33
2023-02-14T10:24:31.415Z,78.23
2023-02-14T10:25:46.078Z,78.31
2023-02-14T10:26:52.894Z,78.32
2023-02-14T10:27:57.634Z,78.44
2023-02-14T10:28:59.680Z,78.18
2023-02-14T10:30:04.157Z,78.24
2023-02-14T10:31:27.691Z,78.41
2023-02-14T10:32:36.695Z,78.02
2023-02-14T10:33:42.488Z,77.65
2023-02-14T10:34:47.571Z,77.99
2023-02-14T10:35:53.386Z,78.31
2023-02-14T10:37:10.959Z,78.58
2023-02-14T10:38:23.155Z,78.70
2023-02-14T10:39:47.266Z,78.81
2023-02-14T10:41:08.457Z,78.35
2023-02-14T10:42:17.430Z,78.56
2023-02-14T10:43:55.297Z,78.33
2023-02-14T10:45:15.828Z,78.60
2023-02-14T10:46:39.572Z,79.03
2023-02-14T10:47:55.237Z,78.79
2023-02-14T10:49:19.149Z,78.88
2023-02-14T10:50:25.314Z,78.32
2023-02-14T10:51:58.703Z,78.00
2023-02-14T10:53:23.346Z,78.14
2023-02-14T10:54:37.510Z,77.48
2023-02-14T10:55:52.285Z,77.24
2023-02-14T10:57:03.922Z,77.38
2023-02-14T10:58:06.303Z,76.99
2023-02-14T10:59:27.077Z,76.50
2023-02-14T11:00:38.526Z,75.79
2023-02-14T11:01:42.469Z,75.52
2023-02-14T11:02:48.310Z,75.20
2023-02-14T11:03:57.834Z,75.01
2023-02-14T11:05:03.037Z,74.92
2023-02-14T11:06:07.184Z,75.40
2023-02-14T11:07:17.865Z,75.22
2023-02-14T11:08:40.923Z,75.49
2023-02-14T11:09:43.562Z,75.84
2023-02-14T11:10:46.179Z,76.02
2023-02-14T11:11:51.938Z,76.06
2023-02-14T11:12:54.169Z,76.12
2023-02-14T11:13:56.190Z,75.72
2023-02-14T11:16:36.842Z,75.22
2023-02-14T11:17:39.712Z,75.80
2023-02-14T11:18:42.462Z,75.17
2023-02-14T11:19:48.099Z,75.20
2023-02-14T11:21:10.793Z,75.21
2023-02-14T11:22:16.843Z,75.09
2023-02-14T11:23:20.581Z,74.90
2023-02-14T11:24:40.577Z,75.30
2023-02-14T11:25:46.254Z,75.16
2023-02-14T11:26:50.399Z,75.28
2023-02-14T11:28:05.477Z,75.43
2023-02-14T11:29:13.993Z,75.18
2023-02-14T11:30:23.131Z,75.17
2023-02-14T11:31:33.700Z,75.13
2023-02-14T11:32:36.176Z,74.95
2023-02-14T11:33:41.313Z,75.20
2023-02-14T11:34:56.496Z,75.25
2023-02-14T11:35:59.689Z,75.10
2023-02-14T11:37:04.721Z,75.20
2023-02-14T11:38:11.275Z,75.10
2023-02-14T11:39:23.049Z,75.00
2023-02-14T11:40:32.110Z,74.91
2023-02-14T11:41:50.180Z,75.02
2023-02-14T11:43:02.234Z,75.39
2023-02-14T11:44:01.821Z,75.86
2023-02-14T11:45:05.444Z,75.90
2023-02-14T11:46:24.926Z,76.71
2023-02-14T11:47:29.703Z,76.79
2023-02-14T11:48:38.376Z,76.79
2023-02-14T11:49:35.622Z,76.67
2023-02-14T11:50:38.724Z,76.61
2023-02-14T11:51:44.233Z,76.91
2023-02-14T11:52:53.569Z,77.12
2023-02-14T11:53:58.483Z,76.63
2023-02-14T11:55:01.144Z,77.23
2023-02-14T11:56:03.579Z,77.12
2023-02-14T11:57:08.768Z,77.00
2023-02-14T11:58:14.474Z,77.06
2023-02-14T12:00:33.437Z,76.67
2023-02-14T12:01:37.344Z,76.83
2023-02-14T12:02:43.173Z,76.43
2023-02-14T12:03:47.710Z,76.32
2023-02-14T12:04:53.465Z,76.24
2023-02-14T12:05:56.136Z,76.16
2023-02-14T12:07:18.753Z,75.85
2023-02-14T12:08:30.600Z,76.05
2023-02-14T12:09:32.798Z,75.59
2023-02-14T12:10:37.233Z,75.66
2023-02-14T12:11:39.523Z,75.51
2023-02-14T12:14:01.257Z,76.17
2023-02-14T12:15:31.487Z,76.04
2023-02-14T12:16:37.444Z,76.20
2023-02-14T12:17:43.762Z,75.61
2023-02-14T12:18:55.459Z,75.33
2023-02-14T12:20:09.927Z,74.71
2023-02-14T12:21:22.172Z,74.93
2023-02-14T12:23:42.182Z,74.82
2023-02-14T12:25:12.629Z,74.69
2023-02-14T12:26:34.255Z,74.48
2023-02-14T12:27:48.987Z,74.37
2023-02-14T12:28:55.045Z,74.74
2023-02-14T12:30:03.822Z,74.27
2023-02-14T12:31:11.172Z,73.94
2023-02-14T12:32:22.766Z,74.07
2023-02-14T12:33:24.791Z,73.53
2023-02-14T12:34:27.225Z,73.40
2023-02-14T12:35:49.257Z,73.24
2023-02-14T12:37:11.946Z,73.30
2023-02-14T12:38:23.355Z,73.15
2023-02-14T12:39:38.273Z,72.98
2023-02-14T12:40:53.408Z,73.05
2023-02-14T12:42:05.006Z,72.33
2023-02-14T12:43:27.227Z,72.25
2023-02-14T12:44:51.205Z,72.19
2023-02-14T12:47:35.237Z,71.93
2023-02-14T12:49:14.690Z,71.99
2023-02-14T12:50:36.350Z,71.72
2023-02-14T12:52:08.412Z,71.50
2023-02-14T12:53:17.161Z,70.82
2023-02-14T12:54:39.994Z,70.50
2023-02-14T12:56:03.694Z,70.01
2023-02-14T12:57:32.822Z,70.39
2023-02-14T12:58:41.619Z,69.79
2023-02-14T13:00:11.624Z,69.65
2023-02-14T13:01:39.134Z,70.06
2023-02-14T13:04:22.557Z,70.04
2023-02-14T13:05:34.519Z,69.39
2023-02-14T13:06:43.205Z,69.74
2023-02-14T13:08:01.284Z,69.78
2023-02-14T13:09:10.449Z,69.40
2023-02-14T13:10:31.572Z,69.05
2023-02-14T13:11:40.227Z,69.20
2023-02-14T13:13:07.076Z,69.45
2023-02-14T13:14:34.241Z,69.67
2023-02-14T13:17:08.714Z,69.13
2023-02-14T13:18:17.169Z,69.01
2023-02-14T13:19:33.249Z,69.00
2023-02-14T13:20:55.722Z,68.66
2023-02-14T13:21:59.903Z,68.67
2023-02-14T13:23:14.628Z,68.55
2023-02-14T13:24:23.091Z,68.84
2023-02-14T13:25:28.479Z,68.73
2023-02-14T13:26:34.970Z,68.75
2023-02-14T13:27:38.894Z,68.77
2023-02-14T13:28:44.653Z,68.36
2023-02-14T13:29:50.431Z,68.58
2023-02-14T13:30:54.831Z,68.73
2023-02-14T13:32:00.188Z,68.76
2023-02-14T13:33:22.733Z,68.83
2023-02-14T13:34:34.599Z,68.65
2023-02-14T13:35:37.164Z,68.04
2023-02-14T13:36:41.362Z,68.07
2023-02-14T13:37:50.186Z,67.62
2023-02-14T13:38:57.191Z,67.31
2023-02-14T13:40:02.893Z,67.71
2023-02-14T13:41:07.781Z,67.83
2023-02-14T13:42:11.986Z,67.97
2023-02-14T13:43:17.720Z,67.92
2023-02-14T13:44:44.416Z,67.51
2023-02-14T13:45:53.895Z,68.02
2023-02-14T13:46:56.371Z,68.01
2023-02-14T13:48:14.539Z,68.04
2023-02-14T13:49:32.771Z,67.75
2023-02-14T13:51:03.574Z,68.17
2023-02-14T13:52:06.350Z,68.17
2023-02-14T13:53:12.429Z,68.59
2023-02-14T13:54:42.857Z,68.79
2023-02-14T13:55:44.976Z,68.09
2023-02-14T13:56:48.194Z,68.10
2023-02-14T13:58:08.896Z,68.01
2023-02-14T13:59:14.613Z,67.86
2023-02-14T14:00:20.782Z,68.04
2023-02-14T14:01:32.524Z,68.12
2023-02-14T14:02:41.955Z,68.10
2023-02-14T14:03:53.776Z,67.95
2023-02-14T14:04:56.033Z,68.34
2023-02-14T14:06:07.690Z,68.55
2023-02-14T14:08:30.698Z,67.78
2023-02-14T14:09:45.718Z,68.23
2023-02-14T14:10:59.110Z,68.23
2023-02-14T14:12:01.498Z,68.19
2023-02-14T14:13:06.449Z,68.14
2023-02-14T14:14:29.583Z,68.21
2023-02-14T14:15:31.537Z,68.32
2023-02-14T14:16:34.791Z,68.46
2023-02-14T14:17:40.495Z,68.51
2023-02-14T14:18:43.400Z,68.42
2023-02-14T14:19:47.121Z,68.91
2023-02-14T14:20:49.655Z,68.98
2023-02-14T14:22:04.045Z,68.70
2023-02-14T14:23:26.366Z,68.57
2023-02-14T14:24:34.943Z,68.68